Time;durP1;ratioP1;P1;durP2;ratioP2;P2;SDS_P1;SDS_P2;PMS_P1;PMS_P2;Temp;Humidity;BMP_temperature;BMP_pressure;BME280_temperature;BME280_humidity;BME280_pressure;Samples;Min_cycle;Max_cycle;Signal;HPM_P1;HPM_P2
2021/04/12 00:00:46;;;;;;;18.30;13.63;;;;;;;19.65;48.84;100327.81;2070710;28;20079;-78
2021/04/12 00:01:58;;;;;;;17.48;12.68;;;;;;;19.68;48.86;100323.94;2067086;28;20554;-77
2021/04/12 00:03:09;;;;;;;15.80;12.23;;;;;;;19.68;48.72;100327.53;2064532;28;20026;-78
2021/04/12 00:04:29;;;;;;;16.40;12.45;;;;;;;19.69;48.92;100328.38;2065260;28;20503;-78
2021/04/12 00:05:54;;;;;;;16.33;12.40;;;;;;;19.68;48.83;100335.75;2068122;28;20099;-78
2021/04/12 00:07:01;;;;;;;16.58;12.95;;;;;;;19.67;48.66;100331.28;2066949;28;20052;-78
2021/04/12 00:08:13;;;;;;;16.67;13.35;;;;;;;19.69;48.70;100328.38;2070647;28;20126;-78
2021/04/12 00:09:26;;;;;;;15.88;13.20;;;;;;;19.69;48.75;100340.19;2068256;28;20033;-78
2021/04/12 00:10:37;;;;;;;16.48;13.15;;;;;;;19.69;48.72;100342.91;2068872;28;20116;-78
2021/04/12 00:11:59;;;;;;;15.68;12.40;;;;;;;19.68;48.72;100337.63;2070384;28;20112;-78
2021/04/12 00:13:04;;;;;;;16.90;13.88;;;;;;;19.67;48.70;100353.19;2070101;28;20049;-78
2021/04/12 00:14:11;;;;;;;15.90;13.32;;;;;;;19.66;48.75;100345.94;2067353;28;20038;-78
2021/04/12 00:15:34;;;;;;;15.02;12.95;;;;;;;19.68;48.74;100343.94;2069943;28;20061;-79
2021/04/12 00:16:43;;;;;;;17.65;13.88;;;;;;;19.67;48.79;100358.63;2068662;28;20076;-78
2021/04/12 00:17:47;;;;;;;17.20;13.23;;;;;;;19.67;48.78;100352.25;2069947;28;20041;-78
2021/04/12 00:18:53;;;;;;;17.42;14.38;;;;;;;19.66;48.75;100354.13;2067582;28;20109;-77
2021/04/12 00:20:15;;;;;;;20.08;13.15;;;;;;;19.65;48.81;100357.88;2065165;28;20499;-78
2021/04/12 00:21:20;;;;;;;14.48;12.30;;;;;;;19.66;48.76;100350.53;2068243;28;20034;-78
2021/04/12 00:22:27;;;;;;;15.43;12.65;;;;;;;19.64;48.85;100358.88;2069622;28;20141;-78
2021/04/12 00:23:30;;;;;;;15.10;12.70;;;;;;;19.64;48.75;100353.41;2070690;28;20041;-79
2021/04/12 00:24:38;;;;;;;14.55;13.05;;;;;;;19.64;48.83;100353.41;2066928;28;20081;-78
2021/04/12 00:25:50;;;;;;;14.73;12.38;;;;;;;19.64;48.80;100355.28;2065988;28;20022;-78
2021/04/12 00:27:08;;;;;;;15.57;12.75;;;;;;;19.62;48.89;100352.72;2063008;28;20111;-78
2021/04/12 00:28:21;;;;;;;17.27;13.13;;;;;;;19.63;48.99;100356.31;2070315;28;20029;-78
2021/04/12 00:29:37;;;;;;;15.50;12.55;;;;;;;19.62;48.83;100354.56;2067180;28;20030;-77
2021/04/12 00:30:52;;;;;;;15.65;13.43;;;;;;;19.63;49.06;100357.16;2068846;28;20071;-78
2021/04/12 00:32:12;;;;;;;16.17;12.73;;;;;;;19.61;48.77;100361.91;2068804;28;20171;-78
2021/04/12 00:33:31;;;;;;;17.02;13.25;;;;;;;19.61;48.90;100358.31;2068312;28;20065;-78
2021/04/12 00:34:49;;;;;;;15.23;13.00;;;;;;;19.58;48.81;100355.91;2065319;28;20034;-78
2021/04/12 00:35:52;;;;;;;14.75;13.05;;;;;;;19.58;48.90;100359.47;2069843;28;20128;-78
2021/04/12 00:37:00;;;;;;;17.67;13.80;;;;;;;19.60;48.93;100362.06;2070705;28;20038;-78
2021/04/12 00:38:36;;;;;;;16.42;13.88;;;;;;;19.58;48.87;100359.47;2066291;28;20392;-78
2021/04/12 00:39:45;;;;;;;18.00;14.68;;;;;;;19.58;48.85;100358.63;2067009;28;20070;-78
2021/04/12 00:41:33;;;;;;;16.60;12.75;;;;;;;19.55;49.08;100353.44;2067809;28;20026;-78
2021/04/12 00:42:36;;;;;;;16.27;13.02;;;;;;;19.56;48.84;100360.63;2052566;28;20043;-78
2021/04/12 00:43:49;;;;;;;17.95;13.10;;;;;;;19.55;48.90;100361.63;2067876;28;20684;-78
2021/04/12 00:44:58;;;;;;;16.23;13.73;;;;;;;19.54;48.90;100363.50;2065887;28;20501;-77
2021/04/12 00:46:25;;;;;;;15.60;12.45;;;;;;;19.54;48.91;100363.50;2068999;28;20029;-78
2021/04/12 00:47:55;;;;;;;17.65;12.25;;;;;;;19.55;48.92;100365.25;2065782;28;20049;-78
2021/04/12 00:49:16;;;;;;;16.17;13.57;;;;;;;19.55;48.90;100358.91;2065675;28;20032;-78
2021/04/12 00:50:31;;;;;;;16.20;13.55;;;;;;;19.54;48.90;100363.50;2068675;28;20033;-78
2021/04/12 00:51:49;;;;;;;16.77;13.13;;;;;;;19.52;48.92;100365.53;2069129;28;20372;-78
2021/04/12 00:53:00;;;;;;;16.92;13.05;;;;;;;19.53;48.93;100367.28;2068221;28;20148;-78
2021/04/12 00:54:22;;;;;;;16.17;12.73;;;;;;;19.52;48.97;100362.78;2067333;28;20532;-78
2021/04/12 00:55:33;;;;;;;16.10;13.15;;;;;;;19.50;48.95;100353.91;2069589;28;20029;-78
2021/04/12 00:56:42;;;;;;;16.45;13.50;;;;;;;19.50;48.99;100356.63;2066608;28;20536;-77
2021/04/12 00:58:13;;;;;;;15.10;12.43;;;;;;;19.51;49.16;100357.50;2067483;28;20113;-78
2021/04/12 00:59:33;;;;;;;17.05;14.23;;;;;;;19.49;48.95;100357.63;2067194;28;20034;-78
2021/04/12 01:00:38;;;;;;;15.88;13.50;;;;;;;19.49;49.01;100360.34;2066255;28;20061;-78
2021/04/12 01:01:51;;;;;;;17.33;13.15;;;;;;;19.50;49.09;100367.56;2067785;28;20092;-78
2021/04/12 01:03:19;;;;;;;16.60;13.65;;;;;;;19.51;49.07;100361.06;2068282;28;20032;-79
2021/04/12 01:04:38;;;;;;;18.55;13.95;;;;;;;19.47;49.12;100363.22;2070408;28;20036;-78
2021/04/12 01:05:38;;;;;;;16.73;13.38;;;;;;;19.49;49.10;100379.50;2067658;28;20409;-78
2021/04/12 01:06:57;;;;;;;17.70;13.83;;;;;;;19.49;49.05;100374.88;2069896;28;20033;-78
2021/04/12 01:08:16;;;;;;;15.65;13.50;;;;;;;19.49;49.00;100376.75;2063887;28;20037;-78
2021/04/12 01:09:38;;;;;;;18.00;12.80;;;;;;;19.48;49.09;100369.56;2069049;28;20469;-77
2021/04/12 01:10:47;;;;;;;17.33;14.57;;;;;;;19.48;49.02;100373.16;2063926;28;20026;-78
2021/04/12 01:11:48;;;;;;;18.70;13.77;;;;;;;19.48;49.04;100375.03;2067575;28;20390;-78
2021/04/12 01:13:24;;;;;;;15.87;13.23;;;;;;;19.46;48.99;100374.31;2063226;28;20038;-78
2021/04/12 01:14:52;;;;;;;17.20;13.05;;;;;;;19.44;49.12;100373.59;2052117;28;20580;-78
2021/04/12 01:16:14;;;;;;;16.00;14.05;;;;;;;19.43;49.14;100378.22;2053558;28;20042;-78
2021/04/12 01:17:51;;;;;;;19.08;13.85;;;;;;;19.43;49.02;100372.75;2069145;28;20068;-78
2021/04/12 01:18:56;;;;;;;17.75;14.57;;;;;;;19.44;49.06;100374.47;2067263;28;20037;-78
2021/04/12 01:20:21;;;;;;;17.33;14.70;;;;;;;19.43;49.10;100377.34;2062912;28;20030;-78
2021/04/12 01:21:43;;;;;;;17.55;13.27;;;;;;;19.41;49.10;100373.91;2067318;28;20042;-78
2021/04/12 01:23:14;;;;;;;16.42;13.73;;;;;;;19.41;49.23;100379.38;2065654;28;20030;-78
2021/04/12 01:24:49;;;;;;;17.50;13.82;;;;;;;19.40;49.12;100372.16;2070788;28;20057;-78
2021/04/12 01:26:15;;;;;;;19.30;13.32;;;;;;;19.41;49.08;100373.91;2068744;28;20151;-78
2021/04/12 01:27:50;;;;;;;16.00;13.48;;;;;;;19.38;49.22;100371.47;2068639;28;20520;-77
2021/04/12 01:29:29;;;;;;;17.45;12.88;;;;;;;19.40;49.21;100373.03;2063925;28;20149;-79
2021/04/12 01:30:48;;;;;;;17.95;14.55;;;;;;;19.37;49.15;100369.72;2071757;28;20037;-78
2021/04/12 01:32:24;;;;;;;17.48;13.70;;;;;;;19.38;49.20;100376.94;2070367;28;20026;-78
2021/04/12 01:34:06;;;;;;;17.38;14.15;;;;;;;19.36;49.12;100382.53;2069592;28;20084;-78
2021/04/12 01:35:33;;;;;;;17.45;13.82;;;;;;;19.39;49.28;100384.13;2055330;28;20112;-78
2021/04/12 01:36:59;;;;;;;17.20;13.48;;;;;;;19.39;49.26;100389.56;2068617;28;20696;-78
2021/04/12 01:38:10;;;;;;;16.13;13.50;;;;;;;19.38;49.33;100390.59;2065478;28;20658;-78
2021/04/12 01:39:28;;;;;;;19.83;14.07;;;;;;;19.39;49.17;100386.84;2067196;28;20508;-78
2021/04/12 01:41:10;;;;;;;19.73;14.75;;;;;;;19.40;49.27;100389.44;2069542;28;20692;-78
2021/04/12 01:42:34;;;;;;;15.40;13.23;;;;;;;19.40;49.15;100385.81;2046502;28;20587;-78
2021/04/12 01:44:13;;;;;;;17.17;13.98;;;;;;;19.40;49.15;100383.09;2055875;28;20124;-78
2021/04/12 01:45:41;;;;;;;16.40;13.85;;;;;;;19.40;49.21;100385.81;2073742;28;20040;-77
2021/04/12 01:47:06;;;;;;;18.08;13.82;;;;;;;19.39;49.16;100381.38;2068715;28;20026;-78
2021/04/12 01:48:24;;;;;;;17.77;14.27;;;;;;;19.40;49.11;100383.09;2066025;28;20023;-78
2021/04/12 01:49:39;;;;;;;15.45;13.32;;;;;;;19.41;49.10;100387.56;2071409;28;20029;-77
2021/04/12 01:50:58;;;;;;;16.55;14.27;;;;;;;19.41;49.14;100390.31;2071604;28;20114;-78
2021/04/12 01:52:23;;;;;;;15.05;12.63;;;;;;;19.39;49.10;100392.31;2070589;28;20041;-78
2021/04/12 01:53:54;;;;;;;15.20;13.10;;;;;;;19.38;49.18;100394.19;2071252;28;20038;-77
2021/04/12 01:55:27;;;;;;;15.82;13.73;;;;;;;19.38;49.11;100396.06;2065226;28;20026;-78
2021/04/12 01:57:01;;;;;;;17.35;14.25;;;;;;;19.37;49.13;100395.19;2070325;28;20065;-77
2021/04/12 01:58:14;;;;;;;17.65;13.88;;;;;;;19.38;49.16;100396.94;2071179;28;20096;-78
2021/04/12 01:59:59;;;;;;;16.90;13.70;;;;;;;19.38;49.11;100396.06;2066879;28;20022;-77
2021/04/12 02:01:16;;;;;;;15.80;13.43;;;;;;;19.37;49.02;100391.59;2054350;28;20113;-78
2021/04/12 02:02:41;;;;;;;17.88;14.55;;;;;;;19.37;49.23;100394.31;2069554;28;20033;-78
2021/04/12 02:04:15;;;;;;;17.52;14.20;;;;;;;19.36;49.11;100393.47;2071067;28;20536;-78
2021/04/12 02:05:47;;;;;;;16.52;13.82;;;;;;;19.36;49.22;100385.25;2066994;28;20026;-78
2021/04/12 02:07:04;;;;;;;16.90;13.90;;;;;;;19.35;49.22;100389.00;2069521;28;20026;-78
2021/04/12 02:08:37;;;;;;;18.20;14.40;;;;;;;19.33;49.26;100388.28;2067429;28;20041;-77
2021/04/12 02:10:10;;;;;;;18.40;13.95;;;;;;;19.35;49.19;100385.41;2063950;28;20037;-78
2021/04/12 02:11:36;;;;;;;15.57;13.20;;;;;;;19.34;49.23;100383.69;2067484;28;20033;-78
2021/04/12 02:12:57;;;;;;;16.70;13.70;;;;;;;19.34;49.20;100384.53;2069074;28;20038;-78
2021/04/12 02:14:16;;;;;;;15.75;13.82;;;;;;;19.36;49.08;100376.22;2071698;28;20038;-76
2021/04/12 02:15:25;;;;;;;17.55;14.27;;;;;;;19.38;49.14;100376.94;2071311;28;20084;-77
2021/04/12 02:16:51;;;;;;;16.52;14.27;;;;;;;19.37;49.06;100378.78;2068872;28;20080;-77
2021/04/12 02:18:23;;;;;;;14.85;12.38;;;;;;;19.37;49.15;100383.38;2069743;28;20034;-76
2021/04/12 02:19:39;;;;;;;22.00;15.93;;;;;;;19.34;49.16;100378.22;2059382;28;20061;-77
2021/04/12 02:21:23;;;;;;;26.77;22.00;;;;;;;19.34;49.16;100380.94;2065230;28;20316;-75
2021/04/12 02:22:51;;;;;;;24.23;20.00;;;;;;;19.34;49.25;100389.16;2064290;28;20129;-74
2021/04/12 02:24:13;;;;;;;101.32;81.32;;;;;;;19.34;49.12;100391.88;2063890;28;20038;-73
2021/04/12 02:25:23;;;;;;;60.75;48.85;;;;;;;19.35;49.17;100390.88;2070468;28;20030;-73
2021/04/12 02:26:52;;;;;;;90.78;73.25;;;;;;;19.37;49.15;100388.84;2066835;28;20562;-72
2021/04/12 02:28:17;;;;;;;74.28;60.40;;;;;;;19.38;49.02;100390.59;2068628;28;20049;-73
2021/04/12 02:29:31;;;;;;;71.70;55.40;;;;;;;19.41;49.11;100395.78;2066717;28;20023;-72
2021/04/12 02:30:47;;;;;;;68.35;54.10;;;;;;;19.44;48.97;100393.59;2066389;28;20030;-73
2021/04/12 02:31:54;;;;;;;61.92;48.70;;;;;;;19.49;48.76;100393.16;2071181;28;20056;-73
2021/04/12 02:33:01;;;;;;;63.53;50.63;;;;;;;19.54;48.74;100390.84;2070901;28;20041;-73
2021/04/12 02:34:24;;;;;;;56.78;48.20;;;;;;;19.58;48.59;100399.66;2068930;28;20560;-73
2021/04/12 02:35:53;;;;;;;61.60;48.65;;;;;;;19.64;48.26;100396.31;2066799;28;20078;-73
2021/04/12 02:37:12;;;;;;;61.47;46.72;;;;;;;19.68;48.30;100395.91;2059962;28;20041;-74
2021/04/12 02:38:28;;;;;;;50.50;41.92;;;;;;;19.74;48.24;100401.81;2070203;28;20034;-76
2021/04/12 02:39:47;;;;;;;52.17;41.38;;;;;;;19.79;48.11;100394.00;2064634;28;20030;-74
2021/04/12 02:41:02;;;;;;;49.45;41.78;;;;;;;19.84;47.86;100405.38;2066070;28;20039;-77
2021/04/12 02:42:32;;;;;;;51.00;41.35;;;;;;;19.84;47.96;100405.38;2068030;28;20030;-77
2021/04/12 02:43:56;;;;;;;48.00;39.53;;;;;;;19.88;47.83;100398.59;2069495;28;20669;-75
2021/04/12 02:45:05;;;;;;;48.22;39.17;;;;;;;19.91;47.83;100409.25;2063346;28;20065;-78
2021/04/12 02:46:30;;;;;;;46.38;36.80;;;;;;;19.88;47.38;100404.06;2067184;28;20026;-72
2021/04/12 02:47:43;;;;;;;44.60;37.97;;;;;;;19.88;46.99;100399.47;2070394;28;20029;-73
2021/04/12 02:49:01;;;;;;;43.17;35.90;;;;;;;19.96;47.20;100406.91;2070871;28;20485;-71
2021/04/12 02:50:32;;;;;;;40.53;34.80;;;;;;;20.10;46.93;100402.88;2071175;28;20043;-76
2021/04/12 02:52:02;;;;;;;45.25;36.08;;;;;;;20.29;46.42;100401.94;2070341;28;20046;-72
2021/04/12 02:53:18;;;;;;;46.00;34.70;;;;;;;20.49;45.94;100402.72;2068518;28;20077;-73
2021/04/12 02:54:38;;;;;;;43.47;34.40;;;;;;;20.67;45.47;100397.31;2071410;28;20108;-72
2021/04/12 02:56:05;;;;;;;40.45;35.22;;;;;;;20.81;45.09;100396.78;2069181;28;20026;-72
2021/04/12 02:58:49;;;;;;;40.25;34.88;;;;;;;20.82;45.36;100398.50;2057456;28;20049;-72
2021/04/12 02:59:59;;;;;;;39.35;33.95;;;;;;;20.82;45.53;100398.50;2065386;28;20068;-71
2021/04/12 03:01:11;;;;;;;38.72;32.40;;;;;;;20.83;45.49;100402.13;2066984;28;20034;-71
2021/04/12 03:02:14;;;;;;;40.15;32.85;;;;;;;20.81;45.67;100402.25;2069735;28;20424;-71
2021/04/12 03:03:33;;;;;;;49.35;34.25;;;;;;;20.80;45.67;100406.03;2067759;28;20040;-71
2021/04/12 03:04:36;;;;;;;41.80;32.50;;;;;;;20.80;45.66;100408.78;2068519;28;20108;-71
2021/04/12 03:05:40;;;;;;;39.72;31.95;;;;;;;20.80;45.81;100410.63;2067570;28;20774;-71
2021/04/12 03:06:50;;;;;;;38.10;32.70;;;;;;;20.83;45.76;100408.47;2067762;28;20487;-71
2021/04/12 03:08:25;;;;;;;38.72;32.45;;;;;;;20.83;45.85;100410.34;2064795;28;20037;-70
2021/04/12 03:09:49;;;;;;;36.40;31.17;;;;;;;20.84;45.87;100404.69;2067753;28;20125;-70
2021/04/12 03:10:57;;;;;;;37.97;30.70;;;;;;;20.81;45.83;100407.75;2070367;28;20061;-70
2021/04/12 03:12:16;;;;;;;34.20;29.88;;;;;;;20.84;45.93;100407.44;2069612;28;20053;-70
2021/04/12 03:13:38;;;;;;;38.03;31.25;;;;;;;20.85;45.99;100409.16;2067879;28;20464;-70
2021/04/12 03:15:10;;;;;;;35.63;31.70;;;;;;;20.85;45.99;100408.28;2070324;28;20137;-71
2021/04/12 03:16:47;;;;;;;33.47;29.52;;;;;;;20.85;45.94;100411.91;2069438;28;20817;-71
2021/04/12 03:18:22;;;;;;;38.47;31.52;;;;;;;20.83;45.92;100416.69;2069795;28;20034;-71
2021/04/12 03:19:28;;;;;;;34.50;30.75;;;;;;;20.84;45.87;100418.38;2068775;28;20041;-71
2021/04/12 03:20:59;;;;;;;33.40;29.52;;;;;;;20.85;45.94;100411.03;2069685;28;20121;-71
2021/04/12 03:22:30;;;;;;;36.25;29.58;;;;;;;20.84;45.91;100407.44;2069148;28;20096;-70
2021/04/12 03:23:43;;;;;;;34.60;29.25;;;;;;;20.84;45.83;100412.06;2068105;28;20061;-73
2021/04/12 03:25:25;;;;;;;33.90;28.77;;;;;;;20.87;46.03;100409.88;2069565;28;20033;-73
2021/04/12 03:26:44;;;;;;;32.58;28.75;;;;;;;20.85;46.02;100409.16;2060081;28;20097;-73
2021/04/12 03:28:02;;;;;;;35.25;28.60;;;;;;;20.85;46.02;100414.66;2069670;28;20038;-73
2021/04/12 03:29:21;;;;;;;33.55;28.50;;;;;;;20.87;45.88;100418.09;2067775;28;20121;-74
2021/04/12 03:30:46;;;;;;;32.10;27.58;;;;;;;20.87;45.87;100428.19;2062494;28;20850;-73
2021/04/12 03:32:06;;;;;;;36.20;28.75;;;;;;;20.85;46.08;100428.34;2067319;28;20069;-73
2021/04/12 03:33:44;;;;;;;32.30;27.70;;;;;;;20.85;46.00;100431.09;2070287;28;20037;-73
2021/04/12 03:35:13;;;;;;;35.40;29.13;;;;;;;20.87;45.97;100430.91;2068589;28;20115;-73
2021/04/12 03:36:38;;;;;;;32.45;27.42;;;;;;;20.83;46.08;100433.13;2071303;28;20057;-73
2021/04/12 03:38:00;;;;;;;32.28;27.02;;;;;;;20.83;46.11;100438.59;2066491;28;20032;-74
2021/04/12 03:39:12;;;;;;;30.80;26.02;;;;;;;20.84;46.10;100439.44;2070199;28;20034;-75
2021/04/12 03:40:37;;;;;;;31.70;26.42;;;;;;;20.81;46.21;100440.63;2068006;28;20775;-75
2021/04/12 03:41:37;;;;;;;32.33;27.67;;;;;;;20.82;46.18;100442.34;2068533;28;20028;-75
2021/04/12 03:42:51;;;;;;;32.33;27.07;;;;;;;20.82;46.02;100436.84;2070315;28;20490;-75
2021/04/12 03:44:10;;;;;;;30.27;26.58;;;;;;;20.83;46.10;100438.59;2069364;28;20018;-75
2021/04/12 03:45:23;;;;;;;31.15;26.40;;;;;;;20.83;45.94;100433.13;2068181;28;20084;-75
2021/04/12 03:46:32;;;;;;;29.60;25.55;;;;;;;20.84;46.21;100445.78;2070567;28;20025;-73
2021/04/12 03:47:32;;;;;;;30.20;25.92;;;;;;;20.83;46.18;100433.13;2068114;28;20058;-74
2021/04/12 03:48:54;;;;;;;30.40;25.80;;;;;;;20.83;46.10;100441.34;2069489;28;20037;-73
2021/04/12 03:50:52;;;;;;;28.97;24.90;;;;;;;20.81;46.02;100440.63;2068343;28;20061;-73
2021/04/12 03:52:18;;;;;;;30.40;25.23;;;;;;;20.79;46.21;100442.66;2050909;28;20344;-73
2021/04/12 03:53:49;;;;;;;30.45;25.42;;;;;;;20.81;46.20;100445.25;2052857;28;20035;-74
2021/04/12 03:55:01;;;;;;;30.70;25.48;;;;;;;20.80;46.24;100444.41;2052499;28;20592;-73
2021/04/12 03:56:11;;;;;;;30.58;27.08;;;;;;;20.78;46.08;100435.47;2050655;28;20053;-73
2021/04/12 03:57:17;;;;;;;29.90;26.17;;;;;;;20.78;46.11;100443.69;2059339;28;20100;-72
2021/04/12 03:58:50;;;;;;;31.65;26.58;;;;;;;20.73;46.27;100443.28;2070066;28;20121;-72
2021/04/12 04:00:14;;;;;;;26.33;23.50;;;;;;;20.71;46.22;100443.41;2064347;28;20026;-72
2021/04/12 04:01:20;;;;;;;30.25;25.67;;;;;;;20.71;46.38;100448.03;2065065;28;20077;-72
2021/04/12 04:02:43;;;;;;;29.35;24.67;;;;;;;20.72;46.26;100452.50;2067221;28;20018;-72
2021/04/12 04:04:06;;;;;;;28.42;25.40;;;;;;;20.70;46.18;100446.28;2067881;28;20033;-74
2021/04/12 04:05:41;;;;;;;29.83;24.63;;;;;;;20.67;46.39;100444.72;2068946;28;20029;-78
2021/04/12 04:07:06;;;;;;;30.23;24.83;;;;;;;20.70;46.40;100443.56;2068215;28;20029;-75
2021/04/12 04:08:21;;;;;;;25.88;22.85;;;;;;;20.70;46.27;100449.03;2069449;28;20127;-75
2021/04/12 04:09:46;;;;;;;27.83;23.85;;;;;;;20.69;46.29;100452.81;2067705;28;20029;-74
2021/04/12 04:11:17;;;;;;;28.50;23.55;;;;;;;20.68;46.14;100451.09;2066277;28;20065;-74
2021/04/12 04:12:27;;;;;;;28.85;23.50;;;;;;;20.65;46.28;100451.38;2068555;28;20068;-73
2021/04/12 04:13:47;;;;;;;27.33;23.60;;;;;;;20.64;46.36;100456.00;2064723;28;20033;-73
2021/04/12 04:15:08;;;;;;;26.65;22.75;;;;;;;20.64;46.42;100444.19;2065087;28;20581;-73
2021/04/12 04:16:33;;;;;;;27.98;23.35;;;;;;;20.64;46.29;100455.13;2066226;28;20049;-73
2021/04/12 04:18:15;;;;;;;28.92;23.73;;;;;;;20.64;46.11;100456.00;2064406;28;20030;-72
2021/04/12 04:19:46;;;;;;;30.52;24.15;;;;;;;20.67;46.31;100460.31;2051115;28;20051;-74
2021/04/12 04:20:49;;;;;;;29.60;24.17;;;;;;;20.68;46.33;100462.91;2065467;28;20382;-72
2021/04/12 04:22:08;;;;;;;33.08;22.58;;;;;;;20.70;46.11;100457.25;2065189;28;20026;-72
2021/04/12 04:23:14;;;;;;;26.40;22.85;;;;;;;20.71;46.09;100462.59;2063805;28;20026;-72
2021/04/12 04:24:34;;;;;;;25.83;21.63;;;;;;;20.72;46.27;100457.97;2066793;28;20026;-72
2021/04/12 04:25:52;;;;;;;27.90;24.50;;;;;;;20.73;46.15;100463.31;2066965;28;20690;-73
2021/04/12 04:27:24;;;;;;;26.33;22.45;;;;;;;20.72;45.93;100463.44;2068569;28;20054;-73
2021/04/12 04:28:30;;;;;;;25.95;22.45;;;;;;;20.73;46.08;100463.31;2065021;28;20093;-73
2021/04/12 04:29:43;;;;;;;25.55;22.00;;;;;;;20.75;46.21;100471.38;2063780;28;20042;-73
2021/04/12 04:31:08;;;;;;;25.30;21.98;;;;;;;20.76;45.98;100470.34;2066763;28;20049;-72
2021/04/12 04:32:27;;;;;;;25.70;22.23;;;;;;;20.75;46.09;100472.25;2064671;28;20023;-72
2021/04/12 04:33:52;;;;;;;24.45;21.83;;;;;;;20.77;46.15;100472.06;2065061;28;20501;-73
2021/04/12 04:35:19;;;;;;;24.73;21.95;;;;;;;20.75;45.99;100474.13;2064456;28;20030;-73
2021/04/12 04:36:39;;;;;;;23.67;20.92;;;;;;;20.77;46.12;100477.53;2065977;28;20109;-74
2021/04/12 04:37:50;;;;;;;26.35;22.25;;;;;;;20.76;45.88;100486.78;2066902;28;20028;-74
2021/04/12 04:39:04;;;;;;;23.58;20.88;;;;;;;20.76;45.88;100486.78;2065313;28;20061;-73
2021/04/12 04:40:13;;;;;;;24.15;21.13;;;;;;;20.77;46.02;100483.03;2065110;28;20029;-74
2021/04/12 04:41:37;;;;;;;25.58;22.17;;;;;;;20.78;45.86;100487.50;2065699;28;20079;-73
2021/04/12 04:42:50;;;;;;;23.45;20.75;;;;;;;20.75;46.16;100485.09;2058172;28;20080;-73
2021/04/12 04:44:24;;;;;;;24.10;21.50;;;;;;;20.76;46.15;100492.28;2067671;28;20029;-73
2021/04/12 04:45:33;;;;;;;23.67;19.92;;;;;;;20.76;46.15;100492.28;2065038;28;20500;-73
2021/04/12 04:46:41;;;;;;;24.38;20.85;;;;;;;20.77;45.99;100488.50;2066495;28;20084;-74
2021/04/12 04:48:13;;;;;;;26.88;22.13;;;;;;;20.74;45.94;100494.31;2066204;28;20064;-74
2021/04/12 04:49:41;;;;;;;23.92;21.30;;;;;;;20.74;46.18;100494.31;2065660;28;20049;-74
2021/04/12 04:50:50;;;;;;;22.42;19.65;;;;;;;20.75;46.10;100501.53;2064074;28;20029;-72
2021/04/12 04:52:14;;;;;;;23.92;20.83;;;;;;;20.75;45.96;100501.53;2062477;28;20065;-73
2021/04/12 04:53:29;;;;;;;26.00;19.83;;;;;;;20.75;45.90;100501.53;2049223;28;20043;-73
2021/04/12 04:54:48;;;;;;;21.73;19.33;;;;;;;20.73;46.03;100503.53;2064029;28;20049;-73
2021/04/12 04:56:19;;;;;;;23.88;20.50;;;;;;;20.74;46.24;100510.72;2066247;28;20101;-72
2021/04/12 04:57:55;;;;;;;21.67;19.17;;;;;;;20.73;46.09;100509.03;2067436;28;20060;-72
2021/04/12 04:59:06;;;;;;;22.77;19.35;;;;;;;20.75;46.30;100513.34;2068411;28;20042;-75
2021/04/12 05:00:22;;;;;;;26.30;20.45;;;;;;;20.73;46.10;100503.53;2067132;28;20121;-75
2021/04/12 05:01:29;;;;;;;35.17;26.17;;;;;;;20.72;45.54;100504.53;2065690;28;20032;-77
2021/04/12 05:02:41;;;;;;;27.42;21.27;;;;;;;20.30;44.43;100507.69;2068923;28;20729;-77
2021/04/12 05:03:55;;;;;;;;;;;;;;;19.94;42.83;100507.44;2068134;28;20022;-74
2021/04/12 05:05:01;;;;;;;41.47;26.40;;;;;;;19.60;43.25;100505.13;2067319;28;20168;-70
2021/04/12 05:06:11;;;;;;;265.52;163.40;;;;;;;19.40;42.00;100503.38;2070704;28;20509;-67
2021/04/12 05:07:27;;;;;;;116.63;70.00;;;;;;;19.09;42.17;100513.56;2068400;28;20026;-67
2021/04/12 05:09:04;;;;;;;71.63;45.33;;;;;;;19.17;43.54;100503.63;2066749;28;20045;-72
2021/04/12 05:10:27;;;;;;;62.58;39.63;;;;;;;19.38;44.12;100506.28;2064479;28;20030;-72
2021/04/12 05:12:19;;;;;;;64.28;42.10;;;;;;;19.56;43.69;100517.34;2062964;28;20062;-72
2021/04/12 05:13:51;;;;;;;63.60;40.33;;;;;;;19.81;43.27;100517.81;2048115;28;20182;-73
2021/04/12 05:15:07;;;;;;;59.97;40.05;;;;;;;19.91;43.32;100521.41;2022348;29;20136;-69
2021/04/12 05:16:24;;;;;;;55.78;36.75;;;;;;;19.95;43.34;100525.59;2030443;28;20579;-68
2021/04/12 05:18:02;;;;;;;52.40;35.55;;;;;;;19.93;42.75;100522.13;2069852;28;20034;-70
2021/04/12 05:19:37;;;;;;;46.53;35.25;;;;;;;19.82;43.88;100520.44;2064546;28;20506;-70
2021/04/12 05:21:08;;;;;;;42.42;31.27;;;;;;;19.70;42.24;100522.44;2069242;28;20025;-70
2021/04/12 05:22:26;;;;;;;37.90;28.83;;;;;;;19.66;42.43;100525.56;2066762;28;20037;-69
2021/04/12 05:23:32;;;;;;;38.72;27.33;;;;;;;19.67;42.80;100528.22;2071001;28;20053;-68
2021/04/12 05:24:53;;;;;;;41.65;28.65;;;;;;;19.66;42.46;100523.69;2070383;28;20041;-69
2021/04/12 05:26:15;;;;;;;34.03;25.35;;;;;;;19.64;42.59;100522.97;2069277;28;20396;-70
2021/04/12 05:27:21;;;;;;;41.90;31.23;;;;;;;19.68;43.22;100527.19;2072181;28;20104;-71
2021/04/12 05:28:24;;;;;;;36.30;28.40;;;;;;;19.70;42.34;100527.91;2070453;28;20778;-70
2021/04/12 05:29:50;;;;;;;41.65;31.08;;;;;;;19.77;42.84;100538.25;2070989;28;20025;-70
2021/04/12 05:31:14;;;;;;;45.55;33.67;;;;;;;19.81;42.93;100526.91;2051099;28;20039;-70
2021/04/12 05:32:49;;;;;;;47.55;34.22;;;;;;;19.80;42.47;100538.00;2065614;28;20526;-70
2021/04/12 05:34:14;;;;;;;41.65;33.10;;;;;;;19.83;42.71;100537.69;2066033;28;20117;-70
2021/04/12 05:35:35;;;;;;;40.35;31.25;;;;;;;19.83;42.58;100543.16;2064306;28;20087;-69
2021/04/12 05:36:54;;;;;;;41.63;33.33;;;;;;;19.86;42.76;100545.63;2070243;28;20111;-70
2021/04/12 05:38:31;;;;;;;44.03;32.83;;;;;;;19.87;42.52;100544.63;2068909;28;20022;-69
2021/04/12 05:39:50;;;;;;;42.78;31.45;;;;;;;19.87;42.43;100550.94;2068247;28;20053;-69
2021/04/12 05:41:21;;;;;;;37.53;29.80;;;;;;;19.87;42.02;100555.56;2069828;28;20021;-71
2021/04/12 05:42:36;;;;;;;36.83;27.42;;;;;;;19.88;42.20;100557.28;2069557;28;20026;-71
2021/04/12 05:44:11;;;;;;;35.67;28.30;;;;;;;19.88;42.05;100560.00;2068376;28;20034;-70
2021/04/12 05:45:39;;;;;;;32.67;25.75;;;;;;;19.89;41.86;100565.34;2068600;28;20488;-70
2021/04/12 05:47:09;;;;;;;32.70;25.55;;;;;;;19.88;41.73;100563.59;2069617;28;20491;-68
2021/04/12 05:48:34;;;;;;;31.90;23.90;;;;;;;19.89;41.57;100568.09;2073233;28;20053;-69
2021/04/12 05:49:58;;;;;;;31.65;22.92;;;;;;;19.89;41.99;100569.94;2070067;28;20026;-68
2021/04/12 05:51:49;;;;;;;28.25;20.95;;;;;;;19.92;41.83;100577.88;2067195;28;20021;-69
2021/04/12 05:53:06;;;;;;;27.23;20.05;;;;;;;20.04;41.76;100579.47;2053853;28;20038;-69
2021/04/12 05:54:43;;;;;;;27.08;20.70;;;;;;;20.09;41.85;100584.50;2061359;28;20073;-69
2021/04/12 05:56:16;;;;;;;26.65;21.52;;;;;;;20.19;42.00;100587.25;2066371;28;20142;-70
2021/04/12 05:57:32;;;;;;;28.65;22.02;;;;;;;20.24;41.99;100590.41;2066316;28;20038;-72
2021/04/12 05:58:39;;;;;;;28.95;21.45;;;;;;;20.27;42.08;100593.69;2070424;28;20436;-68
2021/04/12 06:00:20;;;;;;;28.45;22.05;;;;;;;20.23;42.35;100596.88;2067885;28;20089;-67
2021/04/12 06:01:35;;;;;;;27.08;21.50;;;;;;;20.20;41.93;100597.16;2063891;28;20117;-69
2021/04/12 06:03:12;;;;;;;27.52;21.23;;;;;;;20.18;41.91;100601.91;2064640;28;20034;-69
2021/04/12 06:04:37;;;;;;;27.65;20.25;;;;;;;20.14;42.05;100598.63;2068700;28;20032;-69
2021/04/12 06:06:02;;;;;;;27.55;22.35;;;;;;;20.15;42.24;100602.22;2068349;28;20061;-69
2021/04/12 06:07:41;;;;;;;28.52;21.75;;;;;;;20.15;42.40;100607.69;2068257;28;20045;-70
2021/04/12 06:08:42;;;;;;;27.33;22.02;;;;;;;20.17;42.41;100605.69;2067815;28;20030;-69